sensor_id;sensor_type;location;lat;lon;timestamp;pressure;altitude;pressure_sealevel;temperature;humidity
6196;BME280;3131;42.630;23.382;2023-03-25T09:47:30;94052.70;;;15.87;32.46
6196;BME280;3131;42.630;23.382;2023-03-25T09:50:03;94052.70;;;15.87;32.46
6196;BME280;3131;42.630;23.382;2023-03-25T09:52:38;93962.16;;;31.45;29.47
6196;BME280;3131;42.630;23.382;2023-03-25T09:55:10;93952.48;;;32.81;27.19
6196;BME280;3131;42.630;23.382;2023-03-25T09:57:43;93956.50;;;30.25;29.44
6196;BME280;3131;42.630;23.382;2023-03-25T10:00:19;93943.82;;;30.98;29.35
6196;BME280;3131;42.630;23.382;2023-03-25T10:02:52;93942.42;;;29.37;30.33
6196;BME280;3131;42.630;23.382;2023-03-25T10:05:32;93939.33;;;29.78;30.43
6196;BME280;3131;42.630;23.382;2023-03-25T10:10:50;93942.17;;;29.94;29.53
6196;BME280;3131;42.630;23.382;2023-03-25T10:13:21;93943.78;;;29.54;29.95
6196;BME280;3131;42.630;23.382;2023-03-25T10:15:54;93933.28;;;29.35;30.70
6196;BME280;3131;42.630;23.382;2023-03-25T10:18:41;93931.63;;;29.17;30.78
6196;BME280;3131;42.630;23.382;2023-03-25T10:21:15;93924.27;;;29.26;30.52
6196;BME280;3131;42.630;23.382;2023-03-25T10:23:46;93920.63;;;27.40;32.01
6196;BME280;3131;42.630;23.382;2023-03-25T10:26:21;93923.41;;;26.39;33.97
6196;BME280;3131;42.630;23.382;2023-03-25T10:28:53;148999.84;;;26.55;34.03
6196;BME280;3131;42.630;23.382;2023-03-25T10:31:24;93908.56;;;27.73;32.96
6196;BME280;3131;42.630;23.382;2023-03-25T10:33:57;93904.20;;;27.64;32.72
6196;BME280;3131;42.630;23.382;2023-03-25T10:36:31;93904.69;;;27.24;32.63
6196;BME280;3131;42.630;23.382;2023-03-25T10:39:01;93903.72;;;26.29;33.02
6196;BME280;3131;42.630;23.382;2023-03-25T10:41:34;93900.55;;;26.27;32.95
6196;BME280;3131;42.630;23.382;2023-03-25T10:44:09;93885.39;;;25.74;34.66
6196;BME280;3131;42.630;23.382;2023-03-25T10:46:41;93880.11;;;26.78;33.35
6196;BME280;3131;42.630;23.382;2023-03-25T10:49:16;93882.02;;;27.47;32.23
6196;BME280;3131;42.630;23.382;2023-03-25T10:51:48;93882.38;;;29.08;29.26
6196;BME280;3131;42.630;23.382;2023-03-25T10:54:21;93879.55;;;30.43;27.43
6196;BME280;3131;42.630;23.382;2023-03-25T10:56:53;93882.03;;;32.11;25.41
6196;BME280;3131;42.630;23.382;2023-03-25T10:59:25;93876.77;;;31.52;26.12
6196;BME280;3131;42.630;23.382;2023-03-25T11:01:57;93877.91;;;29.89;26.46
6196;BME280;3131;42.630;23.382;2023-03-25T11:04:30;93877.21;;;29.63;27.05
6196;BME280;3131;42.630;23.382;2023-03-25T11:07:02;93866.85;;;27.93;28.90
6196;BME280;3131;42.630;23.382;2023-03-25T11:09:33;93862.56;;;27.26;29.62
6196;BME280;3131;42.630;23.382;2023-03-25T11:12:06;93859.80;;;25.57;31.61
6196;BME280;3131;42.630;23.382;2023-03-25T11:14:38;93861.32;;;25.48;31.63
6196;BME280;3131;42.630;23.382;2023-03-25T11:17:13;93852.66;;;25.07;32.64
6196;BME280;3131;42.630;23.382;2023-03-25T11:22:26;93839.05;;;25.54;32.31
6196;BME280;3131;42.630;23.382;2023-03-25T11:25:00;93836.94;;;26.35;31.43
6196;BME280;3131;42.630;23.382;2023-03-25T11:27:30;93830.72;;;27.07;30.53
6196;BME280;3131;42.630;23.382;2023-03-25T11:30:04;93830.72;;;27.07;30.53
6196;BME280;3131;42.630;23.382;2023-03-25T11:32:35;93831.56;;;28.60;29.35
6196;BME280;3131;42.630;23.382;2023-03-25T11:35:13;93827.70;;;30.56;27.34
6196;BME280;3131;42.630;23.382;2023-03-25T11:40:26;93813.05;;;31.65;25.38
6196;BME280;3131;42.630;23.382;2023-03-25T11:42:57;93810.67;;;32.73;24.61
6196;BME280;3131;42.630;23.382;2023-03-25T11:45:31;93809.47;;;35.05;22.84
6196;BME280;3131;42.630;23.382;2023-03-25T11:48:08;110919.39;;;35.50;22.22
6196;BME280;3131;42.630;23.382;2023-03-25T11:50:35;93783.38;;;34.72;22.07
6196;BME280;3131;42.630;23.382;2023-03-25T11:55:48;93791.36;;;34.29;23.00
6196;BME280;3131;42.630;23.382;2023-03-25T12:01:16;93788.38;;;35.31;21.74
6196;BME280;3131;42.630;23.382;2023-03-25T12:06:28;93785.32;;;35.11;21.27
6196;BME280;3131;42.630;23.382;2023-03-25T12:11:40;93772.05;;;34.92;21.53
6196;BME280;3131;42.630;23.382;2023-03-25T12:17:12;93763.66;;;33.82;21.89
6196;BME280;3131;42.630;23.382;2023-03-25T12:22:35;93755.56;;;31.20;25.07
6196;BME280;3131;42.630;23.382;2023-03-25T12:28:09;93759.02;;;28.91;26.92
6196;BME280;3131;42.630;23.382;2023-03-25T12:33:34;93758.11;;;27.63;28.49
6196;BME280;3131;42.630;23.382;2023-03-25T12:38:54;93746.42;;;27.18;29.67
6196;BME280;3131;42.630;23.382;2023-03-25T12:44:05;93763.02;;;27.01;29.51
6196;BME280;3131;42.630;23.382;2023-03-25T12:49:42;93761.50;;;23.17;34.17
6196;BME280;3131;42.630;23.382;2023-03-25T12:55:08;24973.17;;;0.00;33.42
6196;BME280;3131;42.630;23.382;2023-03-25T13:00:37;93753.43;;;24.36;32.65
6196;BME280;3131;42.630;23.382;2023-03-25T13:03:25;93764.27;;;24.71;32.58
6196;BME280;3131;42.630;23.382;2023-03-25T13:05:59;93769.47;;;24.51;32.59
6196;BME280;3131;42.630;23.382;2023-03-25T13:08:33;93756.30;;;23.34;34.92
6196;BME280;3131;42.630;23.382;2023-03-25T13:13:48;93753.39;;;23.13;34.55
6196;BME280;3131;42.630;23.382;2023-03-25T13:16:19;93756.59;;;23.35;34.92
6196;BME280;3131;42.630;23.382;2023-03-25T13:18:54;93749.59;;;22.13;35.73
6196;BME280;3131;42.630;23.382;2023-03-25T13:21:26;93755.99;;;22.41;35.90
6196;BME280;3131;42.630;23.382;2023-03-25T13:24:00;93698.22;;;21.44;36.92
6196;BME280;3131;42.630;23.382;2023-03-25T13:26:31;93746.11;;;21.47;38.21
6196;BME280;3131;42.630;23.382;2023-03-25T13:29:02;82953.38;;;21.47;38.21
6196;BME280;3131;42.630;23.382;2023-03-25T13:31:35;93745.98;;;20.66;39.46
6196;BME280;3131;42.630;23.382;2023-03-25T13:37:01;93742.34;;;20.85;40.33
6196;BME280;3131;42.630;23.382;2023-03-25T13:39:45;93749.86;;;20.98;40.22
6196;BME280;3131;42.630;23.382;2023-03-25T13:42:06;93756.61;;;20.18;41.69
6196;BME280;3131;42.630;23.382;2023-03-25T13:44:39;93752.77;;;20.18;42.20
6196;BME280;3131;42.630;23.382;2023-03-25T13:50:01;93759.36;;;19.98;44.19
6196;BME280;3131;42.630;23.382;2023-03-25T13:55:27;92495.31;;;19.43;50.25
6196;BME280;3131;42.630;23.382;2023-03-25T13:58:18;92502.46;;;19.08;53.17
6196;BME280;3131;42.630;23.382;2023-03-25T14:00:56;92520.36;;;18.50;57.26
6196;BME280;3131;42.630;23.382;2023-03-25T14:03:46;92550.77;;;18.21;66.27
6196;BME280;3131;42.630;23.382;2023-03-25T14:20:20;68768.70;;;6.72;0.00
6196;BME280;3131;42.630;23.382;2023-03-25T14:22:56;68767.17;;;6.80;0.00
6196;BME280;3131;42.630;23.382;2023-03-25T14:25:32;68767.17;;;6.80;0.00
6196;BME280;3131;42.630;23.382;2023-03-25T14:28:04;68751.91;;;6.87;0.00
6196;BME280;3131;42.630;23.382;2023-03-25T14:30:35;68748.10;;;6.89;0.00
6196;BME280;3131;42.630;23.382;2023-03-25T14:33:09;68732.84;;;6.94;0.00
6196;BME280;3131;42.630;23.382;2023-03-25T14:35:49;68734.37;;;6.95;0.00
6196;BME280;3131;42.630;23.382;2023-03-25T14:38:53;68732.84;;;6.94;0.00
6196;BME280;3131;42.630;23.382;2023-03-25T14:41:54;68728.27;;;6.95;0.00
6196;BME280;3131;42.630;23.382;2023-03-25T14:44:24;68732.84;;;6.95;0.00
6196;BME280;3131;42.630;23.382;2023-03-25T14:47:24;68732.84;;;6.91;0.00
6196;BME280;3131;42.630;23.382;2023-03-25T14:49:53;68751.91;;;6.82;0.00
6196;BME280;3131;42.630;23.382;2023-03-25T14:52:28;68761.07;;;6.71;0.00
6196;BME280;3131;42.630;23.382;2023-03-25T14:55:04;68752.68;;;6.69;0.00
6196;BME280;3131;42.630;23.382;2023-03-25T14:57:37;68732.08;;;6.73;0.00
6196;BME280;3131;42.630;23.382;2023-03-25T15:00:07;68694.70;;;6.89;0.00
6196;BME280;3131;42.630;23.382;2023-03-25T15:02:42;68683.25;;;6.93;0.00
6196;BME280;3131;42.630;23.382;2023-03-25T15:05:17;68659.59;;;7.03;0.00
6196;BME280;3131;42.630;23.382;2023-03-25T15:07:50;68643.58;;;7.13;0.00
6196;BME280;3131;42.630;23.382;2023-03-25T15:10:24;68622.22;;;7.22;0.00
6196;BME280;3131;42.630;23.382;2023-03-25T15:12:59;68606.95;;;7.30;0.00
6196;BME280;3131;42.630;23.382;2023-03-25T15:15:33;68598.56;;;7.34;0.00
6196;BME280;3131;42.630;23.382;2023-03-25T15:18:03;68613.06;;;7.27;0.00
6196;BME280;3131;42.630;23.382;2023-03-25T15:20:33;68612.30;;;7.27;0.00
6196;BME280;3131;42.630;23.382;2023-03-25T15:23:34;68622.22;;;7.23;0.00
6196;BME280;3131;42.630;23.382;2023-03-25T15:26:05;100003.44;;;7.21;0.00
6196;BME280;3131;42.630;23.382;2023-03-25T15:31:55;68632.13;;;7.18;0.00
6196;BME280;3131;42.630;23.382;2023-03-25T15:34:56;68638.23;;;7.12;0.00
6196;BME280;3131;42.630;23.382;2023-03-25T15:40:26;68647.39;;;7.09;0.00
6196;BME280;3131;42.630;23.382;2023-03-25T15:43:16;100002.20;;;7.09;0.00
6196;BME280;3131;42.630;23.382;2023-03-25T15:45:59;68647.39;;;7.09;0.00
6196;BME280;3131;42.630;23.382;2023-03-25T15:48:34;68647.39;;;7.09;0.00
6196;BME280;3131;42.630;23.382;2023-03-25T15:51:16;68647.39;;;7.09;0.00
6196;BME280;3131;42.630;23.382;2023-03-25T15:54:01;100002.20;;;7.09;0.00
6196;BME280;3131;42.630;23.382;2023-03-25T15:56:35;100002.20;;;7.05;0.00
6196;BME280;3131;42.630;23.382;2023-03-25T15:59:07;100002.20;;;7.05;0.00
6196;BME280;3131;42.630;23.382;2023-03-25T16:01:42;100008.81;;;-66.22;1.58
6196;BME280;3131;42.630;23.382;2023-03-25T16:04:14;100002.20;;;7.05;0.00
6196;BME280;3131;42.630;23.382;2023-03-25T16:06:46;34206.50;;;7.05;0.00
6196;BME280;3131;42.630;23.382;2023-03-25T16:09:19;100002.20;;;7.05;0.00
6196;BME280;3131;42.630;23.382;2023-03-25T16:11:49;100002.20;;;7.05;0.00
6196;BME280;3131;42.630;23.382;2023-03-25T16:14:21;100008.81;;;7.05;1.58
6196;BME280;3131;42.630;23.382;2023-03-25T16:16:52;68664.94;;;6.97;0.00
6196;BME280;3131;42.630;23.382;2023-03-25T16:21:53;68664.17;;;6.97;0.00
6196;BME280;3131;42.630;23.382;2023-03-25T16:24:27;100002.20;;;6.97;0.00
6196;BME280;3131;42.630;23.382;2023-03-25T16:26:57;68664.17;;;6.96;0.00
6196;BME280;3131;42.630;23.382;2023-03-25T16:29:26;68664.17;;;6.96;0.00
6196;BME280;3131;42.630;23.382;2023-03-25T16:31:58;100002.20;;;6.96;0.00
6196;BME280;3131;42.630;23.382;2023-03-25T16:34:35;100008.81;;;6.96;0.00
6196;BME280;3131;42.630;23.382;2023-03-25T16:37:06;68671.05;;;6.91;0.00
6196;BME280;3131;42.630;23.382;2023-03-25T16:39:36;100008.81;;;6.91;1.58
6196;BME280;3131;42.630;23.382;2023-03-25T16:42:12;34342.31;;;6.91;0.00
6196;BME280;3131;42.630;23.382;2023-03-25T16:44:43;100008.81;;;6.90;0.00
6196;BME280;3131;42.630;23.382;2023-03-25T16:47:13;100008.81;;;6.86;0.00
6196;BME280;3131;42.630;23.382;2023-03-25T16:52:18;100008.81;;;6.74;1.58
6196;BME280;3131;42.630;23.382;2023-03-25T16:55:10;100008.81;;;6.74;0.00
6196;BME280;3131;42.630;23.382;2023-03-25T16:57:39;100008.81;;;6.74;0.00
6196;BME280;3131;42.630;23.382;2023-03-25T17:00:16;100008.81;;;6.66;0.00
6196;BME280;3131;42.630;23.382;2023-03-25T17:02:47;68709.95;;;6.66;0.00
6196;BME280;3131;42.630;23.382;2023-03-25T17:05:20;100008.81;;;6.60;0.00
6196;BME280;3131;42.630;23.382;2023-03-25T17:07:55;100002.20;;;6.60;0.00
6196;BME280;3131;42.630;23.382;2023-03-25T17:10:24;100008.81;;;-66.22;1.58
6196;BME280;3131;42.630;23.382;2023-03-25T17:12:56;100008.81;;;-66.22;1.58
6196;BME280;3131;42.630;23.382;2023-03-25T17:15:27;100008.81;;;6.60;0.00
6196;BME280;3131;42.630;23.382;2023-03-25T17:20:41;100002.26;;;0.00;0.00
6196;BME280;3131;42.630;23.382;2023-03-25T17:23:24;68754.29;;;0.00;0.00
6196;BME280;3131;42.630;23.382;2023-03-25T17:25:55;100002.26;;;0.00;0.00
6196;BME280;3131;42.630;23.382;2023-03-25T17:28:31;100002.26;;;0.00;0.00
6196;BME280;3131;42.630;23.382;2023-03-25T17:30:59;100002.26;;;0.00;0.00
6196;BME280;3131;42.630;23.382;2023-03-25T17:33:34;68755.05;;;0.00;0.00
6196;BME280;3131;42.630;23.382;2023-03-25T17:36:08;100002.26;;;0.01;0.00
6196;BME280;3131;42.630;23.382;2023-03-25T17:38:41;100002.26;;;0.00;0.00
6196;BME280;3131;42.630;23.382;2023-03-25T17:41:13;100002.26;;;0.00;0.00
6196;BME280;3131;42.630;23.382;2023-03-25T17:43:44;100002.26;;;0.00;0.00
6196;BME280;3131;42.630;23.382;2023-03-25T17:46:18;100002.26;;;0.01;0.00
6196;BME280;3131;42.630;23.382;2023-03-25T17:48:50;100002.26;;;0.01;0.00
6196;BME280;3131;42.630;23.382;2023-03-25T17:51:21;68777.17;;;0.01;0.00
6196;BME280;3131;42.630;23.382;2023-03-25T17:53:52;100002.26;;;0.00;0.00
6196;BME280;3131;42.630;23.382;2023-03-25T17:56:24;100002.26;;;0.00;0.00
6196;BME280;3131;42.630;23.382;2023-03-25T17:58:56;100002.26;;;0.01;0.00
6196;BME280;3131;42.630;23.382;2023-03-25T18:01:27;100002.26;;;0.01;0.00
6196;BME280;3131;42.630;23.382;2023-03-25T18:03:57;100002.26;;;0.00;0.00
6196;BME280;3131;42.630;23.382;2023-03-25T18:06:27;100002.26;;;0.01;0.00
6196;BME280;3131;42.630;23.382;2023-03-25T18:08:57;100002.26;;;0.01;0.00
6196;BME280;3131;42.630;23.382;2023-03-25T18:11:26;100002.26;;;0.01;0.00
6196;BME280;3131;42.630;23.382;2023-03-25T18:13:55;100002.26;;;0.01;0.00
6196;BME280;3131;42.630;23.382;2023-03-25T18:16:25;100002.26;;;0.00;0.00
6196;BME280;3131;42.630;23.382;2023-03-25T18:21:22;100002.26;;;0.01;0.00
6196;BME280;3131;42.630;23.382;2023-03-25T18:23:52;100002.26;;;0.01;0.00
6196;BME280;3131;42.630;23.382;2023-03-25T18:26:22;100002.26;;;0.01;0.00
6196;BME280;3131;42.630;23.382;2023-03-25T18:28:51;100002.26;;;0.01;0.00
6196;BME280;3131;42.630;23.382;2023-03-25T18:31:21;100002.26;;;0.01;0.00
6196;BME280;3131;42.630;23.382;2023-03-25T18:33:51;100002.26;;;0.01;0.00
6196;BME280;3131;42.630;23.382;2023-03-25T18:36:22;100002.26;;;0.01;0.00
6196;BME280;3131;42.630;23.382;2023-03-25T18:38:52;100002.26;;;0.01;0.00
6196;BME280;3131;42.630;23.382;2023-03-25T18:41:22;100002.26;;;0.01;0.00
6196;BME280;3131;42.630;23.382;2023-03-25T18:43:51;100002.26;;;0.01;0.00
6196;BME280;3131;42.630;23.382;2023-03-25T18:46:21;68797.78;;;0.01;0.00
6196;BME280;3131;42.630;23.382;2023-03-25T18:48:50;100002.26;;;0.01;0.00
6196;BME280;3131;42.630;23.382;2023-03-25T18:51:19;100002.26;;;0.01;0.00
6196;BME280;3131;42.630;23.382;2023-03-25T18:53:49;100002.26;;;0.01;0.00
6196;BME280;3131;42.630;23.382;2023-03-25T18:56:18;100002.26;;;0.01;0.00
6196;BME280;3131;42.630;23.382;2023-03-25T18:58:48;100002.26;;;0.01;0.00
6196;BME280;3131;42.630;23.382;2023-03-25T20:55:28;100002.26;;;0.01;0.00
6196;BME280;3131;42.630;23.382;2023-03-25T21:14:08;100002.26;;;0.01;0.00
6196;BME280;3131;42.630;23.382;2023-03-25T21:16:38;100002.26;;;0.01;0.00
6196;BME280;3131;42.630;23.382;2023-03-25T21:19:08;100002.26;;;0.01;0.00
6196;BME280;3131;42.630;23.382;2023-03-25T21:21:37;100002.26;;;0.00;0.00
6196;BME280;3131;42.630;23.382;2023-03-25T21:24:08;100002.26;;;0.01;0.00
6196;BME280;3131;42.630;23.382;2023-03-25T21:29:25;100002.26;;;0.01;0.00
6196;BME280;3131;42.630;23.382;2023-03-25T21:34:36;100002.26;;;0.01;0.00
6196;BME280;3131;42.630;23.382;2023-03-25T21:37:07;100002.26;;;0.01;0.00
6196;BME280;3131;42.630;23.382;2023-03-25T21:39:37;100002.26;;;0.01;0.00
6196;BME280;3131;42.630;23.382;2023-03-25T21:42:07;100002.26;;;0.01;0.00
6196;BME280;3131;42.630;23.382;2023-03-25T21:44:36;100002.26;;;0.01;0.00
6196;BME280;3131;42.630;23.382;2023-03-25T21:47:07;100002.26;;;0.01;0.00
6196;BME280;3131;42.630;23.382;2023-03-25T21:49:37;100002.26;;;0.01;0.00
6196;BME280;3131;42.630;23.382;2023-03-25T21:52:08;100002.26;;;0.01;0.00
6196;BME280;3131;42.630;23.382;2023-03-25T21:54:40;100002.26;;;0.01;0.00
6196;BME280;3131;42.630;23.382;2023-03-25T21:57:10;68797.78;;;0.00;0.00
6196;BME280;3131;42.630;23.382;2023-03-25T21:59:40;100002.26;;;0.01;0.00
6196;BME280;3131;42.630;23.382;2023-03-25T22:02:10;100002.26;;;0.01;0.00
6196;BME280;3131;42.630;23.382;2023-03-25T22:04:41;100002.26;;;0.01;0.00
6196;BME280;3131;42.630;23.382;2023-03-25T22:07:11;100002.26;;;0.01;0.00
6196;BME280;3131;42.630;23.382;2023-03-25T22:09:41;100002.26;;;0.01;0.00
6196;BME280;3131;42.630;23.382;2023-03-25T22:12:11;100002.26;;;0.01;0.00
6196;BME280;3131;42.630;23.382;2023-03-25T22:14:41;100002.26;;;0.01;0.00
6196;BME280;3131;42.630;23.382;2023-03-25T22:17:10;100002.26;;;0.01;0.00
6196;BME280;3131;42.630;23.382;2023-03-25T22:19:40;100002.26;;;0.01;0.00
6196;BME280;3131;42.630;23.382;2023-03-25T22:22:10;100002.26;;;0.01;0.00
6196;BME280;3131;42.630;23.382;2023-03-25T22:24:43;100002.26;;;0.01;0.00
6196;BME280;3131;42.630;23.382;2023-03-25T22:27:12;100002.26;;;0.01;0.00
6196;BME280;3131;42.630;23.382;2023-03-25T22:29:43;100002.26;;;0.00;0.00
6196;BME280;3131;42.630;23.382;2023-03-25T22:32:12;100002.26;;;0.01;0.00
6196;BME280;3131;42.630;23.382;2023-03-25T22:34:42;100002.26;;;0.01;0.00
6196;BME280;3131;42.630;23.382;2023-03-25T22:37:12;100002.26;;;0.01;0.00
6196;BME280;3131;42.630;23.382;2023-03-25T22:39:42;100002.26;;;0.01;0.00
6196;BME280;3131;42.630;23.382;2023-03-25T22:42:13;100002.26;;;0.01;0.00
6196;BME280;3131;42.630;23.382;2023-03-25T22:44:42;100002.26;;;0.01;0.00
6196;BME280;3131;42.630;23.382;2023-03-25T22:47:12;100002.26;;;0.01;0.00
6196;BME280;3131;42.630;23.382;2023-03-25T22:49:41;100002.26;;;0.01;0.00
6196;BME280;3131;42.630;23.382;2023-03-25T22:52:11;100002.26;;;0.01;0.00
6196;BME280;3131;42.630;23.382;2023-03-25T22:54:40;100002.26;;;0.01;0.00
6196;BME280;3131;42.630;23.382;2023-03-25T22:57:10;100002.26;;;0.01;0.00
6196;BME280;3131;42.630;23.382;2023-03-25T22:59:40;100002.26;;;0.00;0.00
6196;BME280;3131;42.630;23.382;2023-03-25T23:02:09;100002.26;;;0.01;0.00
6196;BME280;3131;42.630;23.382;2023-03-25T23:04:41;100002.26;;;0.01;0.00
6196;BME280;3131;42.630;23.382;2023-03-25T23:07:10;100002.26;;;0.01;0.00
6196;BME280;3131;42.630;23.382;2023-03-25T23:09:40;100002.26;;;0.00;0.00
6196;BME280;3131;42.630;23.382;2023-03-25T23:12:12;100002.26;;;0.01;0.00
6196;BME280;3131;42.630;23.382;2023-03-25T23:14:46;100002.26;;;0.01;0.00
6196;BME280;3131;42.630;23.382;2023-03-25T23:17:14;100002.26;;;0.01;0.00
6196;BME280;3131;42.630;23.382;2023-03-25T23:19:43;100002.26;;;0.01;0.00
6196;BME280;3131;42.630;23.382;2023-03-25T23:22:14;100002.26;;;0.01;0.00
6196;BME280;3131;42.630;23.382;2023-03-25T23:24:44;100002.26;;;0.01;0.00
6196;BME280;3131;42.630;23.382;2023-03-25T23:27:14;100002.26;;;0.01;0.00
6196;BME280;3131;42.630;23.382;2023-03-25T23:29:44;13897.00;;;0.01;0.00
6196;BME280;3131;42.630;23.382;2023-03-25T23:32:14;100002.26;;;0.01;0.00
6196;BME280;3131;42.630;23.382;2023-03-25T23:34:43;100002.26;;;0.01;0.00
6196;BME280;3131;42.630;23.382;2023-03-25T23:37:13;100002.26;;;0.01;0.00
6196;BME280;3131;42.630;23.382;2023-03-25T23:39:43;100002.26;;;0.01;0.00
6196;BME280;3131;42.630;23.382;2023-03-25T23:42:13;100002.26;;;0.01;0.00
6196;BME280;3131;42.630;23.382;2023-03-25T23:44:43;100002.26;;;0.01;0.00
6196;BME280;3131;42.630;23.382;2023-03-25T23:47:13;100002.26;;;0.01;0.00
6196;BME280;3131;42.630;23.382;2023-03-25T23:49:42;100002.26;;;0.01;0.00
6196;BME280;3131;42.630;23.382;2023-03-25T23:52:11;100002.26;;;0.01;0.00
6196;BME280;3131;42.630;23.382;2023-03-25T23:54:41;100002.26;;;0.01;0.00
6196;BME280;3131;42.630;23.382;2023-03-25T23:57:11;69023.61;;;0.00;0.00
6196;BME280;3131;42.630;23.382;2023-03-25T23:59:41;100002.26;;;0.01;0.00
